Airfield :
LOGIN :

Register | Disclaimer

   EN    FR    IT 

 










Legend :    VFR   Marginal VFR   IFR   Intensive IFR   Very Intensive IFR
Visi :
Ceiling :
>= 8 km
>= 3000ft
5 to 8 km
1000 to 3000 ft
1500m to 5 km
500 to 1000 ft
800 to 1500m
200 to 500 ft
< 800m
< 200 ft
Symbols :   Thunderstorms  Fog  Heavy snow  Heavy precipitations  Wind > 20 kt
SIGMETs :     Misc.  Thunderstorms  Icing  Turbulence  Mountain Waves  Volcanic Ashes






- Airport Elevation : 794 ft


LKCV - Čáslav Air Base

CURRENT METAR :
  • 281100Z 18005KT 140V210 CAVOK 13/05 Q1014 NOSIG RMK BLU BLU

EXPIRED METARs :
  • 281030Z 18006KT 140V220 CAVOK 12/05 Q1014 NOSIG
  • 281000Z 14005KT 120V190 CAVOK 11/05 Q1015 NOSIG RMK BLU BLU
  • 280930Z 16007KT CAVOK 11/05 Q1014 NOSIG RMK BLU BLU
  • 280900Z 15009KT CAVOK 09/05 Q1014 NOSIG RMK BLU BLU
  • 280830Z 15008KT CAVOK 08/04 Q1014 NOSIG RMK BLU BLU

TAF TAF LKCV
Valid from the 28 at 06:00 until the 29 at 06:00 UTC


280500Z 2806/2906 15006KT CAVOK
PROB30
TEMPO 2806/2807 4000 BR
BECMG 2809/2811 21006KT BKN040
TEMPO 2811/2816 8000 RA SCT020 BKN030



MET'MAP, your aeronautical weather chart ! - Copyright ORBIFLY December 2007 - Disclaimer

ORBIFLY MET'MAP TEAM :

Programming & Development : Alexandra Zaïnal
Concept & original design : Baudouin d'Aumeries
Assistance for programming : Marc-Olivier Méhu
Technical & hardware support : Manuel Goepfert

Contact : metmap@orbifly.com




SOURCES & CREDITS :

   NOAA